Time;durP1;ratioP1;P1;durP2;ratioP2;P2;SDS_P1;SDS_P2;PMS_P1;PMS_P2;Temp;Humidity;BMP_temperature;BMP_pressure;BME280_temperature;BME280_humidity;BME280_pressure;Samples;Min_cycle;Max_cycle;Signal;HPM_P1;HPM_P2
2023/08/31 00:01:42;;;;;;;14.20;9.50;;;;;;;18.44;100.00;100223.71;109965;1238;73328;-71
2023/08/31 00:04:14;;;;;;;13.20;9.80;;;;;;;18.41;100.00;100218.08;110072;1241;58261;-72
2023/08/31 00:06:45;;;;;;;18.00;10.60;;;;;;;18.36;100.00;100213.38;110035;1238;60805;-72
2023/08/31 00:09:14;;;;;;;12.70;9.90;;;;;;;18.40;100.00;100209.35;109910;1238;75002;-72
2023/08/31 00:11:43;;;;;;;14.70;10.70;;;;;;;18.39;100.00;100203.80;109948;1238;61429;-71
2023/08/31 00:14:12;;;;;;;13.80;9.60;;;;;;;18.41;100.00;100205.30;110024;1238;59054;-70
2023/08/31 00:16:41;;;;;;;13.40;9.50;;;;;;;18.34;100.00;100207.16;109927;1239;72909;-71
2023/08/31 00:19:09;;;;;;;14.20;10.00;;;;;;;18.28;100.00;100203.17;110007;1241;61192;-71
2023/08/31 00:21:38;;;;;;;15.70;9.60;;;;;;;18.24;100.00;100202.65;109922;1241;57725;-72
2023/08/31 00:24:07;;;;;;;15.00;10.70;;;;;;;18.30;100.00;100200.67;109924;1238;63542;-71
2023/08/31 00:26:43;;;;;;;13.30;9.80;;;;;;;18.39;100.00;100203.27;109866;1238;72079;-72
2023/08/31 00:29:16;;;;;;;16.90;10.50;;;;;;;18.41;100.00;100196.92;110009;1238;70999;-71
2023/08/31 00:31:45;;;;;;;14.60;10.20;;;;;;;18.38;100.00;100197.59;109963;1240;62651;-71
2023/08/31 00:34:14;;;;;;;14.50;9.50;;;;;;;18.43;100.00;100195.78;109869;1241;62907;-71
2023/08/31 00:36:45;;;;;;;14.30;10.10;;;;;;;18.44;100.00;100194.83;109745;1238;60766;-71
2023/08/31 00:39:14;;;;;;;15.40;10.00;;;;;;;18.50;100.00;100191.98;109529;1238;75145;-71
2023/08/31 00:41:45;;;;;;;15.00;10.10;;;;;;;18.54;100.00;100188.95;109791;1238;71438;-71
2023/08/31 00:44:14;;;;;;;13.20;10.30;;;;;;;18.54;100.00;100184.11;109992;1241;60147;-70
2023/08/31 00:46:49;;;;;;;14.10;9.70;;;;;;;18.47;100.00;100188.48;109918;1241;62251;-70
2023/08/31 00:49:18;;;;;;;15.40;9.60;;;;;;;18.41;100.00;100187.66;109962;1238;61934;-69
2023/08/31 00:51:50;;;;;;;14.60;10.70;;;;;;;18.44;100.00;100184.14;109989;1238;60832;-69
2023/08/31 00:54:20;;;;;;;12.20;10.50;;;;;;;18.39;100.00;100179.71;109759;1238;71687;-71
2023/08/31 00:56:54;;;;;;;13.10;10.20;;;;;;;18.29;100.00;100179.77;110022;1238;63187;-71
2023/08/31 00:59:24;;;;;;;12.80;9.40;;;;;;;18.26;100.00;100179.41;109811;1238;68981;-70
2023/08/31 01:02:27;;;;;;;15.90;10.30;;;;;;;18.31;100.00;100181.11;109957;1238;73853;-70
2023/08/31 01:05:52;;;;;;;15.80;10.70;;;;;;;18.33;100.00;100179.81;109967;1241;58279;-71
2023/08/31 01:08:49;;;;;;;17.50;10.70;;;;;;;18.36;100.00;100184.45;109959;1241;61203;-69
2023/08/31 01:12:04;;;;;;;12.80;10.20;;;;;;;18.34;100.00;100185.44;109948;1238;74357;-69
2023/08/31 01:14:42;;;;;;;16.60;11.20;;;;;;;18.48;100.00;100185.80;109603;1245;61120;-71
2023/08/31 01:17:15;;;;;;;14.30;10.40;;;;;;;18.60;100.00;100184.44;109570;1244;69617;-71
2023/08/31 01:19:52;;;;;;;13.50;10.30;;;;;;;18.67;100.00;100186.68;109862;1241;72666;-71
2023/08/31 01:22:40;;;;;;;17.90;10.50;;;;;;;18.81;100.00;100183.93;109854;1242;57967;-71
2023/08/31 01:25:09;;;;;;;16.50;10.40;;;;;;;18.87;100.00;100179.82;109938;1238;60738;-71
2023/08/31 01:27:39;;;;;;;12.40;9.80;;;;;;;18.87;100.00;100185.14;109821;1243;64175;-72
2023/08/31 01:30:08;;;;;;;15.10;10.60;;;;;;;18.87;100.00;100185.80;109935;1238;72083;-70
2023/08/31 01:32:37;;;;;;;15.40;10.50;;;;;;;18.86;100.00;100188.41;109793;1242;60252;-71
2023/08/31 01:35:07;;;;;;;12.10;9.80;;;;;;;18.77;100.00;100187.85;110007;1241;63140;-71
2023/08/31 01:38:01;;;;;;;13.20;10.20;;;;;;;18.68;100.00;100190.16;110038;1241;58350;-72
2023/08/31 01:40:50;;;;;;;14.50;10.00;;;;;;;18.48;100.00;100198.56;109747;1243;61620;-70
2023/08/31 01:43:20;;;;;;;12.80;11.10;;;;;;;18.33;100.00;100197.43;110028;1238;74716;-70
2023/08/31 01:45:50;;;;;;;13.30;10.50;;;;;;;18.22;100.00;100196.15;110037;1238;61769;-70
2023/08/31 01:48:19;;;;;;;12.90;9.60;;;;;;;18.25;100.00;100194.79;109926;1239;59219;-70
2023/08/31 01:50:48;;;;;;;14.90;10.50;;;;;;;18.36;100.00;100193.25;109735;1238;72773;-70
2023/08/31 01:53:16;;;;;;;14.20;10.80;;;;;;;18.34;100.00;100196.30;109954;1242;63288;-70
2023/08/31 01:55:45;;;;;;;15.50;11.50;;;;;;;18.25;100.00;100194.25;109892;1241;57805;-70
2023/08/31 01:58:14;;;;;;;14.80;10.70;;;;;;;18.16;100.00;100197.91;109965;1238;62716;-71
2023/08/31 02:00:44;;;;;;;12.50;10.00;;;;;;;18.00;100.00;100197.81;110028;1238;70312;-71
2023/08/31 02:03:13;;;;;;;17.90;10.60;;;;;;;17.82;100.00;100197.38;109893;1238;70785;-71
2023/08/31 02:05:42;;;;;;;17.60;10.30;;;;;;;17.68;100.00;100198.01;109989;1238;73624;-71
2023/08/31 02:08:11;;;;;;;14.70;10.10;;;;;;;17.63;100.00;100194.27;109918;1241;58507;-71
2023/08/31 02:10:40;;;;;;;14.50;9.90;;;;;;;17.82;100.00;100192.41;109949;1238;57717;-69
2023/08/31 02:13:10;;;;;;;13.80;10.90;;;;;;;17.86;100.00;100196.39;109995;1238;73318;-70
2023/08/31 02:15:39;;;;;;;13.60;10.40;;;;;;;17.73;100.00;100197.95;109867;1238;61075;-70
2023/08/31 02:18:08;;;;;;;14.30;10.50;;;;;;;17.58;100.00;100195.89;109703;1238;68822;-70
2023/08/31 02:20:37;;;;;;;14.40;10.60;;;;;;;17.57;100.00;100201.86;109762;1239;63608;-72
2023/08/31 02:23:06;;;;;;;15.30;10.90;;;;;;;17.62;100.00;100203.45;109903;1238;58342;-69
2023/08/31 02:25:35;;;;;;;14.50;10.00;;;;;;;17.56;100.00;100202.49;109864;1238;57654;-69
2023/08/31 02:28:04;;;;;;;16.00;9.90;;;;;;;17.49;100.00;100202.90;110021;1238;73612;-72
2023/08/31 02:30:33;;;;;;;14.50;10.80;;;;;;;17.41;100.00;100198.14;109823;1241;71650;-72
2023/08/31 02:33:02;;;;;;;16.80;10.20;;;;;;;17.34;100.00;100199.83;110079;1238;60308;-71
2023/08/31 02:35:31;;;;;;;14.30;9.50;;;;;;;17.17;100.00;100195.85;110156;1237;63592;-71
2023/08/31 02:38:00;;;;;;;14.80;10.30;;;;;;;17.09;100.00;100195.65;110054;1238;58136;-71
2023/08/31 02:40:29;;;;;;;15.30;10.10;;;;;;;17.10;100.00;100186.24;110076;1238;60953;-71
2023/08/31 02:42:57;;;;;;;13.50;9.90;;;;;;;17.20;100.00;100189.58;110068;1238;65111;-71
2023/08/31 02:45:26;;;;;;;16.40;10.80;;;;;;;17.32;100.00;100196.36;110164;1238;60905;-71
2023/08/31 02:47:56;;;;;;;16.60;11.30;;;;;;;17.30;100.00;100199.37;110053;1237;58961;-72
2023/08/31 02:50:26;;;;;;;16.70;10.10;;;;;;;17.21;100.00;100194.03;110179;1237;63104;-72
2023/08/31 02:52:55;;;;;;;14.30;9.90;;;;;;;17.07;100.00;100195.29;109852;1241;61920;-72
2023/08/31 02:55:23;;;;;;;12.10;9.90;;;;;;;17.02;100.00;100201.13;110134;1237;60579;-71
2023/08/31 02:57:53;;;;;;;16.90;10.20;;;;;;;17.03;100.00;100201.55;110106;1238;63631;-71
2023/08/31 03:00:22;;;;;;;16.80;10.30;;;;;;;17.00;100.00;100198.55;109931;1237;61467;-70
2023/08/31 03:02:53;;;;;;;13.70;10.00;;;;;;;17.01;100.00;100201.48;110156;1238;69585;-70
2023/08/31 03:05:23;;;;;;;14.00;9.60;;;;;;;17.01;100.00;100203.17;110014;1237;71676;-69
2023/08/31 03:07:52;;;;;;;15.20;9.00;;;;;;;17.05;100.00;100203.96;110001;1238;61859;-69
2023/08/31 03:10:22;;;;;;;12.50;9.10;;;;;;;17.08;100.00;100206.34;110073;1238;60730;-70
2023/08/31 03:12:50;;;;;;;13.10;9.00;;;;;;;17.13;100.00;100199.55;110002;1238;75549;-70
2023/08/31 03:15:19;;;;;;;12.80;9.30;;;;;;;17.18;100.00;100193.97;110035;1237;61878;-70
2023/08/31 03:17:48;;;;;;;13.80;9.20;;;;;;;17.21;100.00;100193.89;109880;1237;68853;-70
2023/08/31 03:20:17;;;;;;;13.40;8.70;;;;;;;17.24;100.00;100198.94;109825;1238;73542;-70
2023/08/31 03:22:46;;;;;;;12.80;8.90;;;;;;;17.24;100.00;100196.64;109818;1240;62427;-71
2023/08/31 03:25:14;;;;;;;12.40;9.00;;;;;;;17.22;100.00;100196.50;109631;1237;57768;-72
2023/08/31 03:27:44;;;;;;;18.30;11.20;;;;;;;17.24;100.00;100197.89;109701;1238;74885;-70
2023/08/31 03:30:13;;;;;;;16.50;11.60;;;;;;;17.28;100.00;100200.85;109860;1237;72810;-70
2023/08/31 03:32:42;;;;;;;18.30;11.60;;;;;;;17.24;100.00;100201.02;109949;1238;60188;-72
2023/08/31 03:35:11;;;;;;;22.40;12.20;;;;;;;17.17;100.00;100200.52;110030;1238;73831;-70
2023/08/31 03:37:40;;;;;;;15.50;10.80;;;;;;;17.07;100.00;100202.77;109835;1240;58294;-70
2023/08/31 03:40:10;;;;;;;16.30;10.90;;;;;;;17.01;100.00;100205.44;109987;1237;57687;-70
2023/08/31 03:42:39;;;;;;;20.10;11.60;;;;;;;16.95;100.00;100202.29;109879;1238;73602;-70
2023/08/31 03:45:08;;;;;;;14.30;11.20;;;;;;;16.92;100.00;100203.66;110022;1237;71813;-70
2023/08/31 03:47:36;;;;;;;17.00;11.30;;;;;;;16.90;100.00;100201.00;109994;1239;69952;-71
2023/08/31 03:50:06;;;;;;;16.70;10.50;;;;;;;16.92;100.00;100201.34;109989;1237;64489;-71
2023/08/31 03:52:35;;;;;;;16.50;10.50;;;;;;;17.08;100.00;100204.02;110010;1238;57842;-71
2023/08/31 03:55:04;;;;;;;21.50;11.60;;;;;;;17.18;100.00;100206.63;110029;1238;59371;-71
2023/08/31 03:57:33;;;;;;;14.50;10.60;;;;;;;17.15;100.00;100207.45;110019;1237;74744;-69
2023/08/31 04:00:12;;;;;;;12.90;9.10;;;;;;;17.29;100.00;100210.19;110021;1238;61037;-70
2023/08/31 04:02:44;;;;;;;15.40;10.20;;;;;;;17.20;100.00;100207.45;110012;1238;70480;-72
2023/08/31 04:05:16;;;;;;;13.80;9.70;;;;;;;17.13;100.00;100201.48;110001;1238;62836;-68
2023/08/31 04:07:45;;;;;;;14.20;9.50;;;;;;;17.12;100.00;100216.77;110014;1239;58229;-68
2023/08/31 04:10:14;;;;;;;13.50;9.10;;;;;;;17.05;100.00;100216.66;109986;1238;61176;-68
2023/08/31 04:12:42;;;;;;;21.10;9.90;;;;;;;17.00;100.00;100216.89;109835;1238;74748;-68
2023/08/31 04:15:13;;;;;;;17.60;10.10;;;;;;;17.05;100.00;100222.27;109975;1238;73463;-67
2023/08/31 04:17:42;;;;;;;10.80;8.80;;;;;;;17.29;100.00;100227.77;110034;1238;60416;-67
2023/08/31 04:20:11;;;;;;;15.30;10.70;;;;;;;17.50;100.00;100234.86;109808;1238;63112;-66
2023/08/31 04:22:40;;;;;;;22.20;12.90;;;;;;;17.50;100.00;100239.64;110002;1239;58306;-68
2023/08/31 04:25:09;;;;;;;19.30;13.20;;;;;;;17.50;100.00;100242.63;109997;1238;58295;-67
2023/08/31 04:27:39;;;;;;;22.70;12.00;;;;;;;17.59;100.00;100246.56;109942;1238;73050;-67
2023/08/31 04:30:09;;;;;;;13.70;10.80;;;;;;;17.55;100.00;100252.96;109979;1238;61877;-69
2023/08/31 04:32:37;;;;;;;15.30;10.60;;;;;;;17.45;100.00;100255.48;109995;1238;69584;-67
2023/08/31 04:35:07;;;;;;;20.20;11.60;;;;;;;17.38;100.00;100259.06;109785;1238;63623;-67
2023/08/31 04:37:35;;;;;;;17.90;11.00;;;;;;;17.37;100.00;100261.08;109951;1240;62961;-69
2023/08/31 04:40:05;;;;;;;18.10;12.50;;;;;;;17.38;100.00;100261.17;109865;1238;58158;-69
2023/08/31 04:42:34;;;;;;;13.90;10.60;;;;;;;17.41;100.00;100260.95;110035;1238;72896;-70
2023/08/31 04:45:03;;;;;;;15.60;11.90;;;;;;;17.35;100.00;100257.38;110057;1238;72631;-68
2023/08/31 04:47:32;;;;;;;18.00;11.60;;;;;;;17.27;100.00;100260.77;110013;1239;59615;-67
2023/08/31 04:50:02;;;;;;;21.60;14.30;;;;;;;17.21;100.00;100264.50;110034;1238;63311;-66
2023/08/31 04:52:31;;;;;;;22.70;15.10;;;;;;;17.19;100.00;100269.00;110025;1238;61466;-67
2023/08/31 04:55:12;;;;;;;20.00;12.30;;;;;;;17.30;100.00;100273.14;110031;1237;60263;-68
2023/08/31 04:57:41;;;;;;;21.20;12.90;;;;;;;17.37;100.00;100272.36;110055;1238;75234;-68
2023/08/31 05:00:11;;;;;;;18.30;13.50;;;;;;;17.40;100.00;100274.63;109997;1238;72791;-68
2023/08/31 05:02:40;;;;;;;20.80;13.50;;;;;;;17.38;100.00;100277.64;110051;1237;59542;-68
2023/08/31 05:05:09;;;;;;;18.90;13.20;;;;;;;17.38;100.00;100274.10;110109;1238;63250;-68
2023/08/31 05:07:38;;;;;;;18.70;12.70;;;;;;;17.42;100.00;100273.52;109884;1238;219979;-69
2023/08/31 05:10:08;;;;;;;22.20;13.00;;;;;;;17.45;100.00;100274.23;110066;1237;60403;-69
2023/08/31 05:12:37;;;;;;;23.00;14.40;;;;;;;17.58;100.00;100277.86;109919;1237;72743;-68
2023/08/31 05:15:06;;;;;;;18.90;14.80;;;;;;;17.67;100.00;100280.45;109730;1238;72541;-68
2023/08/31 05:17:36;;;;;;;20.10;14.30;;;;;;;17.78;100.00;100287.08;109993;1237;60401;-68
2023/08/31 05:20:08;;;;;;;25.10;15.90;;;;;;;17.96;100.00;100292.52;109947;1237;73259;-68
2023/08/31 05:22:36;;;;;;;25.30;15.60;;;;;;;18.19;100.00;100294.52;109993;1238;63237;-68
2023/08/31 05:25:06;;;;;;;21.80;13.60;;;;;;;18.39;100.00;100296.38;110027;1237;57776;-68
2023/08/31 05:27:34;;;;;;;27.50;17.00;;;;;;;18.60;100.00;100291.57;110000;1238;74874;-68
2023/08/31 05:30:04;;;;;;;22.90;14.10;;;;;;;18.74;100.00;100302.89;110122;1238;63577;-69
2023/08/31 05:32:33;;;;;;;22.10;15.20;;;;;;;18.89;100.00;100313.01;110001;1237;70512;-71
2023/08/31 05:35:03;;;;;;;19.40;15.10;;;;;;;18.99;100.00;100325.05;109929;1237;63658;-70
2023/08/31 05:37:35;;;;;;;17.30;13.40;;;;;;;19.12;100.00;100337.69;109899;1237;62650;-70
2023/08/31 05:40:10;;;;;;;21.80;13.80;;;;;;;19.13;100.00;100342.83;109924;1237;60498;-71
2023/08/31 05:42:39;;;;;;;24.80;14.00;;;;;;;19.26;100.00;100346.73;110083;1237;75022;-73
2023/08/31 05:45:08;;;;;;;19.20;13.50;;;;;;;19.39;100.00;100343.30;110079;1238;72494;-72
2023/08/31 05:47:40;;;;;;;21.40;13.50;;;;;;;19.54;100.00;100347.81;110047;1238;59492;-71
2023/08/31 05:50:09;;;;;;;15.90;11.40;;;;;;;19.62;100.00;100354.86;109808;1241;62300;-71
2023/08/31 05:52:38;;;;;;;20.20;12.80;;;;;;;19.73;100.00;100361.20;109917;1238;62755;-71
2023/08/31 05:55:07;;;;;;;20.60;12.30;;;;;;;19.71;100.00;100365.20;110052;1237;60279;-71
2023/08/31 05:57:37;;;;;;;18.30;11.90;;;;;;;19.73;100.00;100367.37;109715;1238;63406;-71
2023/08/31 06:00:08;;;;;;;14.80;10.20;;;;;;;19.89;100.00;100371.89;109988;1238;60779;-71
2023/08/31 06:02:44;;;;;;;14.50;10.40;;;;;;;19.95;100.00;100379.42;109923;1238;69733;-71
2023/08/31 06:05:16;;;;;;;15.60;12.10;;;;;;;20.06;100.00;100380.09;109932;1238;63831;-71
2023/08/31 06:07:45;;;;;;;18.50;11.40;;;;;;;20.26;100.00;100380.95;109961;1237;62694;-71
2023/08/31 06:10:14;;;;;;;13.60;9.70;;;;;;;20.36;100.00;100382.44;109971;1237;60722;-71
2023/08/31 06:12:43;;;;;;;19.40;11.30;;;;;;;20.31;100.00;100381.42;110045;1238;74828;-70
2023/08/31 06:15:12;;;;;;;12.00;9.80;;;;;;;20.32;100.00;100379.89;110015;1238;62415;-70
2023/08/31 06:17:41;;;;;;;13.90;9.90;;;;;;;20.47;100.00;100374.02;110081;1238;60796;-71
2023/08/31 06:20:11;;;;;;;10.70;8.00;;;;;;;20.54;100.00;100375.04;109944;1238;73848;-71
2023/08/31 06:22:40;;;;;;;12.40;8.20;;;;;;;20.61;100.00;100379.80;109980;1238;58264;-71
2023/08/31 06:25:11;;;;;;;13.30;8.80;;;;;;;20.70;100.00;100380.48;110033;1238;61039;-70
2023/08/31 06:27:42;;;;;;;13.40;9.60;;;;;;;20.76;100.00;100378.92;110035;1237;74774;-70
2023/08/31 06:30:15;;;;;;;13.00;9.30;;;;;;;20.80;100.00;100383.52;109933;1238;72464;-70
2023/08/31 06:32:49;;;;;;;14.00;9.10;;;;;;;20.93;100.00;100388.02;110110;1238;60300;-71
2023/08/31 06:35:19;;;;;;;10.90;8.70;;;;;;;21.07;100.00;100388.93;110029;1237;73827;-70
2023/08/31 06:37:50;;;;;;;11.90;8.70;;;;;;;21.14;100.00;100380.31;110039;1238;58229;-71
2023/08/31 06:40:19;;;;;;;12.10;7.80;;;;;;;21.30;100.00;100389.45;110111;1239;58256;-70
2023/08/31 06:42:48;;;;;;;11.50;8.00;;;;;;;21.37;100.00;100389.30;110051;1239;63752;-71
2023/08/31 06:45:17;;;;;;;13.40;8.70;;;;;;;21.44;100.00;100388.00;110085;1238;72363;-70
2023/08/31 06:47:45;;;;;;;10.70;8.20;;;;;;;21.58;100.00;100396.81;109973;1237;70772;-70
2023/08/31 06:50:14;;;;;;;9.60;7.70;;;;;;;21.64;100.00;100396.46;109813;1237;63843;-70
2023/08/31 06:52:44;;;;;;;10.60;8.50;;;;;;;21.79;100.00;100397.38;109746;1242;58279;-71
2023/08/31 06:55:12;;;;;;;9.40;7.00;;;;;;;21.90;100.00;100398.66;109994;1237;61057;-71
2023/08/31 06:57:42;;;;;;;10.60;8.30;;;;;;;21.96;100.00;100398.50;109933;1238;65642;-70
2023/08/31 07:00:12;;;;;;;8.90;7.60;;;;;;;22.02;100.00;100398.66;110036;1238;72528;-72
2023/08/31 07:02:41;;;;;;;10.60;7.90;;;;;;;22.14;100.00;100401.05;110059;1238;71250;-71
2023/08/31 07:05:11;;;;;;;9.50;7.70;;;;;;;22.19;100.00;100406.36;109941;1238;74934;-71
2023/08/31 07:07:40;;;;;;;10.80;7.70;;;;;;;22.31;100.00;100407.58;109891;1238;58506;-70
2023/08/31 07:10:10;;;;;;;12.60;8.50;;;;;;;22.43;100.00;100417.57;109827;1242;59378;-71
2023/08/31 07:12:38;;;;;;;12.00;8.70;;;;;;;22.52;100.00;100421.02;109998;1238;74952;-70
2023/08/31 07:15:07;;;;;;;10.40;6.80;;;;;;;22.61;100.00;100423.66;110008;1241;62131;-70
2023/08/31 07:17:36;;;;;;;8.30;6.70;;;;;;;22.68;100.00;100424.27;110014;1237;70481;-71
2023/08/31 07:20:09;;;;;;;9.10;6.80;;;;;;;22.83;100.00;100433.20;110025;1238;64405;-70
2023/08/31 07:22:40;;;;;;;7.90;6.30;;;;;;;22.85;100.00;100410.97;109999;1237;57736;-71
2023/08/31 07:25:09;;;;;;;8.30;6.20;;;;;;;23.06;100.00;100433.98;109958;1238;60294;-70
2023/08/31 07:27:38;;;;;;;8.00;5.80;;;;;;;23.13;100.00;100433.38;110020;1238;64288;-71
2023/08/31 07:30:07;;;;;;;7.50;6.50;;;;;;;23.23;100.00;100432.41;110028;1239;60729;-70
2023/08/31 07:32:37;;;;;;;9.10;6.60;;;;;;;23.33;100.00;100432.36;109935;1238;69585;-70
2023/08/31 07:35:06;;;;;;;9.60;6.20;;;;;;;23.38;100.00;100439.42;110049;1239;63444;-70
2023/08/31 07:37:37;;;;;;;9.50;6.30;;;;;;;23.43;100.00;100437.52;109998;1241;62828;-71
2023/08/31 07:40:09;;;;;;;9.60;6.50;;;;;;;23.51;100.00;100434.11;110014;1238;61704;-70
2023/08/31 07:42:39;;;;;;;8.00;6.30;;;;;;;23.60;100.00;100433.36;109983;1238;75399;-71
2023/08/31 07:45:08;;;;;;;8.70;6.50;;;;;;;23.67;100.00;100426.63;109920;1238;72538;-71
2023/08/31 07:47:40;;;;;;;8.10;6.40;;;;;;;23.79;100.00;100433.13;110112;1239;59610;-71
2023/08/31 07:50:10;;;;;;;9.20;5.60;;;;;;;23.92;100.00;100430.61;110115;1239;63204;-71
2023/08/31 07:52:39;;;;;;;9.70;6.00;;;;;;;24.03;100.00;100428.83;110004;1240;61966;-71
2023/08/31 07:55:08;;;;;;;5.60;5.00;;;;;;;24.11;100.00;100432.97;110078;1239;60758;-69
2023/08/31 07:57:37;;;;;;;6.40;5.20;;;;;;;24.22;100.00;100434.27;109998;1239;63556;-69
2023/08/31 08:00:07;;;;;;;6.60;5.10;;;;;;;24.35;100.00;100433.04;109902;1239;61170;-69
2023/08/31 08:02:40;;;;;;;6.10;5.20;;;;;;;24.48;100.00;100436.65;109952;1237;61780;-70
2023/08/31 08:05:09;;;;;;;6.60;5.00;;;;;;;24.48;100.00;100428.98;110071;1239;63638;-70
2023/08/31 08:07:38;;;;;;;7.80;5.40;;;;;;;24.59;100.00;100428.81;109785;1241;60998;-70
2023/08/31 08:10:08;;;;;;;6.00;4.70;;;;;;;24.63;100.00;100431.69;109885;1239;60267;-70
2023/08/31 08:12:46;;;;;;;6.20;4.70;;;;;;;24.68;100.00;100433.52;109859;1238;64509;-69
2023/08/31 08:15:15;;;;;;;6.40;4.30;;;;;;;24.78;100.00;100439.25;109843;1238;71567;-70
2023/08/31 08:17:43;;;;;;;7.00;4.60;;;;;;;24.82;100.00;100438.13;109908;1241;71152;-69
2023/08/31 08:20:12;;;;;;;6.00;4.30;;;;;;;24.88;100.00;100440.81;109960;1239;63854;-70
2023/08/31 08:22:41;;;;;;;4.60;4.10;;;;;;;24.94;100.00;100436.52;110013;1240;57779;-70
2023/08/31 08:25:10;;;;;;;5.30;4.00;;;;;;;25.04;100.00;100438.43;110091;1238;58283;-69
2023/08/31 08:27:39;;;;;;;4.80;4.00;;;;;;;25.13;99.75;100436.80;109683;1238;63646;-69
2023/08/31 08:30:09;;;;;;;5.70;4.30;;;;;;;25.22;99.52;100435.35;109732;1237;60903;-70
2023/08/31 08:32:38;;;;;;;5.50;4.50;;;;;;;25.37;99.90;100438.36;109859;1238;69991;-70
2023/08/31 08:35:08;;;;;;;5.40;3.70;;;;;;;25.46;95.20;100442.00;109861;1238;74404;-70
2023/08/31 08:37:36;;;;;;;6.00;4.30;;;;;;;25.55;90.97;100443.36;109985;1239;57813;-69
2023/08/31 08:40:06;;;;;;;6.10;3.60;;;;;;;25.58;91.71;100440.83;110070;1237;57757;-69
2023/08/31 08:42:41;;;;;;;5.00;3.90;;;;;;;25.68;96.39;100442.44;110065;1238;73556;-69
2023/08/31 08:45:17;;;;;;;5.10;3.50;;;;;;;25.75;96.16;100444.52;109869;1238;61147;-69
2023/08/31 08:47:46;;;;;;;6.30;3.30;;;;;;;25.88;89.74;100445.88;110010;1237;70147;-69
2023/08/31 08:50:17;;;;;;;3.90;3.10;;;;;;;25.93;91.36;100439.91;109589;1238;64762;-70
2023/08/31 08:52:46;;;;;;;5.30;3.40;;;;;;;26.01;89.08;100446.34;109901;1239;58255;-69
2023/08/31 08:55:16;;;;;;;3.40;2.80;;;;;;;26.07;85.22;100444.28;109781;1239;57819;-68
2023/08/31 08:57:45;;;;;;;5.00;3.30;;;;;;;26.14;84.51;100446.12;109924;1238;74409;-68
2023/08/31 09:00:15;;;;;;;4.30;3.20;;;;;;;26.17;87.34;100446.38;109811;1239;63505;-68
2023/08/31 09:02:45;;;;;;;4.50;2.90;;;;;;;26.24;84.89;100443.39;109569;1237;59721;-69
2023/08/31 09:05:15;;;;;;;4.30;2.90;;;;;;;26.27;82.06;100448.39;109776;1238;62452;-69
2023/08/31 09:08:05;;;;;;;4.40;3.20;;;;;;;26.29;81.86;100447.17;109670;1238;57728;-70
2023/08/31 09:10:41;;;;;;;5.20;3.30;;;;;;;26.30;81.79;100445.52;109723;1238;61167;-68
2023/08/31 09:13:18;;;;;;;4.80;2.90;;;;;;;26.44;80.38;100447.17;109603;1238;65270;-68
2023/08/31 09:15:49;;;;;;;3.90;2.90;;;;;;;26.47;78.65;100444.71;109698;1238;62142;-68
2023/08/31 09:18:26;;;;;;;3.40;2.50;;;;;;;26.57;79.17;100443.95;109840;1237;60005;-67
2023/08/31 09:20:56;;;;;;;4.40;2.90;;;;;;;26.67;76.26;100443.65;109878;1238;74682;-67
2023/08/31 09:23:26;;;;;;;4.00;2.70;;;;;;;26.68;78.61;100445.23;109810;1238;62508;-66
2023/08/31 09:25:56;;;;;;;4.00;2.90;;;;;;;26.86;79.77;100444.84;109815;1238;57873;-67
2023/08/31 09:28:28;;;;;;;5.50;2.90;;;;;;;27.08;79.40;100444.48;109634;1237;63007;-67
2023/08/31 09:31:08;;;;;;;3.70;2.60;;;;;;;27.10;74.71;100448.43;109914;1238;71124;-67
2023/08/31 09:33:37;;;;;;;7.50;3.00;;;;;;;27.16;76.30;100440.20;109729;1238;59086;-68
2023/08/31 09:36:08;;;;;;;4.20;2.60;;;;;;;27.32;77.34;100447.88;109930;1237;62458;-67
2023/08/31 09:38:44;;;;;;;4.60;2.50;;;;;;;27.23;76.49;100449.72;109692;1241;61241;-67
2023/08/31 09:41:14;;;;;;;3.20;2.70;;;;;;;27.24;77.66;100445.95;109904;1237;58233;-68
2023/08/31 09:43:44;;;;;;;3.50;2.30;;;;;;;27.33;75.77;100445.14;109961;1237;74258;-67
2023/08/31 09:46:14;;;;;;;5.00;2.80;;;;;;;27.25;74.93;100444.17;109745;1238;71968;-68
2023/08/31 09:48:43;;;;;;;3.30;2.40;;;;;;;27.34;74.70;100444.92;109756;1237;60007;-68
2023/08/31 09:51:17;;;;;;;4.20;2.60;;;;;;;27.42;73.93;100444.81;109972;1238;65131;-68
2023/08/31 09:53:48;;;;;;;3.60;2.80;;;;;;;27.38;73.16;100441.59;109723;1243;61603;-68
2023/08/31 09:56:22;;;;;;;3.90;2.80;;;;;;;27.44;72.22;100444.69;109874;1237;60638;-68
2023/08/31 09:58:52;;;;;;;3.10;2.70;;;;;;;27.44;72.00;100447.95;110048;1237;62811;-68
2023/08/31 10:01:21;;;;;;;3.80;2.40;;;;;;;27.53;73.97;100447.83;110067;1240;71375;-67
2023/08/31 10:03:59;;;;;;;5.20;2.30;;;;;;;27.57;72.70;100449.50;110067;1238;59366;-67
2023/08/31 10:06:29;;;;;;;3.70;2.60;;;;;;;27.70;71.81;100451.73;109940;1238;62503;-67
2023/08/31 10:08:59;;;;;;;4.90;3.20;;;;;;;27.74;71.74;100453.11;109993;1240;58362;-66
2023/08/31 10:11:29;;;;;;;3.70;2.40;;;;;;;27.77;68.92;100455.66;109974;1241;57817;-68
2023/08/31 10:13:59;;;;;;;2.90;2.30;;;;;;;27.88;68.37;100455.17;110020;1238;62713;-68
2023/08/31 10:16:28;;;;;;;3.20;2.50;;;;;;;27.97;67.67;100454.02;109943;1237;63204;-68
2023/08/31 10:18:57;;;;;;;3.90;2.20;;;;;;;27.92;66.62;100452.70;109879;1238;70789;-68
2023/08/31 10:21:26;;;;;;;3.80;2.50;;;;;;;28.09;67.47;100450.11;109815;1237;74541;-68
2023/08/31 10:23:55;;;;;;;4.60;2.80;;;;;;;27.99;67.30;100452.31;110076;1239;61430;-68
2023/08/31 10:26:31;;;;;;;4.50;3.30;;;;;;;28.43;65.98;100452.52;110035;1237;60807;-68
2023/08/31 10:29:02;;;;;;;4.40;3.20;;;;;;;28.57;66.68;100450.21;110073;1238;64175;-69
2023/08/31 10:31:34;;;;;;;4.20;3.20;;;;;;;28.73;65.45;100448.98;110048;1238;61414;-67
2023/08/31 10:34:09;;;;;;;5.60;2.90;;;;;;;28.97;66.24;100450.23;109967;1238;69575;-67
2023/08/31 10:36:44;;;;;;;4.30;2.70;;;;;;;29.10;65.00;100443.98;110045;1238;63869;-71
2023/08/31 10:39:16;;;;;;;3.90;2.20;;;;;;;29.36;62.94;100442.15;109949;1241;57754;-68
2023/08/31 10:41:56;;;;;;;4.40;2.70;;;;;;;29.58;59.62;100441.27;110033;1237;57810;-68
2023/08/31 10:44:31;;;;;;;3.40;2.20;;;;;;;29.70;56.65;100438.47;109986;1237;74070;-66
2023/08/31 10:47:03;;;;;;;3.20;2.10;;;;;;;29.69;58.02;100443.50;109886;1238;71732;-68
2023/08/31 10:49:33;;;;;;;5.00;2.20;;;;;;;29.76;57.97;100445.98;110036;1237;59604;-70
2023/08/31 10:52:17;;;;;;;4.20;3.20;;;;;;;29.97;57.03;100447.37;109631;1238;62441;-69
2023/08/31 10:55:05;;;;;;;3.40;2.40;;;;;;;30.28;55.04;100439.20;109923;1239;59605;-68
2023/08/31 10:57:36;;;;;;;3.50;2.60;;;;;;;29.69;53.12;100435.54;109741;1237;58327;-67
2023/08/31 11:00:10;;;;;;;4.50;2.70;;;;;;;29.95;55.35;100433.50;109706;1238;73531;-67
2023/08/31 11:02:44;;;;;;;3.60;2.60;;;;;;;30.41;57.01;100433.86;109960;1237;61863;-70
2023/08/31 11:05:15;;;;;;;3.40;2.40;;;;;;;30.63;57.21;100433.39;109901;1238;59026;-66
2023/08/31 11:07:47;;;;;;;4.20;2.60;;;;;;;30.86;56.73;100431.59;109542;1238;63448;-67
2023/08/31 11:10:19;;;;;;;;;;;;;;;31.07;55.93;100425.58;109830;1240;58410;-67
2023/08/31 11:12:54;;;;;;;3.80;2.50;;;;;;;31.30;51.90;100426.64;109790;1241;58777;-68
2023/08/31 11:15:26;;;;;;;3.20;2.40;;;;;;;31.25;52.80;100423.39;109845;1237;74200;-66
2023/08/31 11:17:56;;;;;;;3.30;2.10;;;;;;;31.12;53.60;100425.08;109797;1238;71932;-66
2023/08/31 11:20:28;;;;;;;3.00;2.20;;;;;;;31.05;51.69;100422.08;109659;1238;70028;-66
2023/08/31 11:22:58;;;;;;;2.90;2.20;;;;;;;31.16;51.11;100420.60;109629;1237;73994;-67